createdAt,value
2023-04-02T00:00:37.404Z,7.9
2023-04-02T00:01:38.412Z,7.9
2023-04-02T00:02:39.526Z,7.9
2023-04-02T00:03:41.599Z,7.9
2023-04-02T00:04:43.525Z,7.9
2023-04-02T00:05:44.449Z,7.9
2023-04-02T00:06:45.461Z,7.9
2023-04-02T00:07:46.451Z,7.9
2023-04-02T00:08:47.466Z,7.8
2023-04-02T00:09:48.765Z,7.8
2023-04-02T00:10:50.423Z,7.8
2023-04-02T00:11:52.481Z,7.8
2023-04-02T00:12:53.408Z,7.8
2023-04-02T00:13:54.499Z,7.7
2023-04-02T00:14:55.660Z,7.8
2023-04-02T00:15:56.448Z,7.8
2023-04-02T00:16:57.492Z,7.8
2023-04-02T00:17:59.526Z,7.8
2023-04-02T00:19:00.544Z,7.8
2023-04-02T00:20:01.565Z,7.7
2023-04-02T00:21:03.492Z,7.8
2023-04-02T00:22:04.448Z,7.8
2023-04-02T00:23:05.484Z,7.8
2023-04-02T00:24:06.446Z,7.8
2023-04-02T00:25:07.577Z,7.8
2023-04-02T00:26:08.403Z,7.8
2023-04-02T00:27:09.445Z,7.8
2023-04-02T00:28:10.451Z,7.8
2023-04-02T00:29:11.420Z,7.6
2023-04-02T00:30:12.466Z,7.5
2023-04-02T00:31:13.449Z,7.4
2023-04-02T00:32:14.440Z,7.4
2023-04-02T00:33:15.468Z,7.4
2023-04-02T00:34:16.427Z,7.4
2023-04-02T00:35:17.468Z,7.4
2023-04-02T00:36:18.485Z,7.4
2023-04-02T00:37:19.477Z,7.4
2023-04-02T00:38:20.464Z,7.4
2023-04-02T00:39:21.492Z,7.4
2023-04-02T00:40:23.112Z,7.4
2023-04-02T00:41:24.450Z,7.4
2023-04-02T00:42:25.440Z,7.4
2023-04-02T00:43:26.469Z,7.4
2023-04-02T00:44:27.491Z,7.3
2023-04-02T00:45:28.510Z,7.2
2023-04-02T00:46:29.440Z,7.1
2023-04-02T00:47:30.487Z,7.1
2023-04-02T00:48:32.501Z,7.1
2023-04-02T00:49:33.489Z,7
2023-04-02T00:50:34.568Z,7.1
2023-04-02T00:51:35.545Z,7.1
2023-04-02T00:52:36.489Z,7.1
2023-04-02T00:53:37.496Z,7.1
2023-04-02T00:54:38.489Z,7.1
2023-04-02T00:55:39.530Z,7
2023-04-02T00:56:40.411Z,7.1
2023-04-02T00:57:41.490Z,7
2023-04-02T00:58:42.489Z,7
2023-04-02T00:59:43.449Z,7
2023-04-02T01:00:44.549Z,7
2023-04-02T01:01:45.527Z,7
2023-04-02T01:02:46.569Z,7
2023-04-02T01:03:47.509Z,7
2023-04-02T01:04:48.504Z,7
2023-04-02T01:05:49.547Z,7.1
2023-04-02T01:06:50.494Z,7.1
2023-04-02T01:07:51.498Z,7.1
2023-04-02T01:08:52.485Z,7.1
2023-04-02T01:09:53.514Z,7.1
2023-04-02T01:10:54.568Z,7
2023-04-02T01:11:55.446Z,7
2023-04-02T01:12:56.488Z,7
2023-04-02T01:13:57.485Z,6.9
2023-04-02T01:14:58.465Z,6.9
2023-04-02T01:15:59.590Z,6.9
2023-04-02T01:17:00.486Z,6.9
2023-04-02T01:18:01.523Z,6.8
2023-04-02T01:19:02.465Z,6.8
2023-04-02T01:20:03.474Z,6.7
2023-04-02T01:21:04.512Z,6.7
2023-04-02T01:22:05.546Z,6.7
2023-04-02T01:23:06.465Z,6.7
2023-04-02T01:24:07.466Z,6.7
2023-04-02T01:25:08.488Z,6.7
2023-04-02T01:26:09.578Z,6.6
2023-04-02T01:27:10.453Z,6.6
2023-04-02T01:28:11.521Z,6.6
2023-04-02T01:29:12.518Z,6.5
2023-04-02T01:30:13.479Z,6.5
2023-04-02T01:31:14.618Z,6.4
2023-04-02T01:32:15.506Z,6.4
2023-04-02T01:33:16.467Z,6.4
2023-04-02T01:34:17.554Z,6.4
2023-04-02T01:35:18.499Z,6.4
2023-04-02T01:36:19.612Z,6.3
2023-04-02T01:37:20.520Z,6.1
2023-04-02T01:38:21.503Z,6
2023-04-02T01:39:22.483Z,6
2023-04-02T01:40:23.489Z,6
2023-04-02T01:41:25.127Z,6
2023-04-02T01:42:26.506Z,6.1
2023-04-02T01:43:27.643Z,6.1
2023-04-02T01:44:28.742Z,6.1
2023-04-02T01:45:29.445Z,6.1
2023-04-02T01:46:30.595Z,6.1
2023-04-02T01:47:31.525Z,6.1
2023-04-02T01:48:32.504Z,6.1
2023-04-02T01:49:33.504Z,6.1
2023-04-02T01:50:34.661Z,6.1
2023-04-02T01:51:35.629Z,6.1
2023-04-02T01:52:36.546Z,6.1
2023-04-02T01:53:37.521Z,6.1
2023-04-02T01:54:38.467Z,6.1
2023-04-02T01:55:39.482Z,6.1
2023-04-02T01:56:40.583Z,6.1
2023-04-02T01:57:41.501Z,6.2
2023-04-02T01:58:42.501Z,6.1
2023-04-02T01:59:43.507Z,6.1
2023-04-02T02:00:44.475Z,6.1
2023-04-02T02:01:45.594Z,6.2
2023-04-02T02:02:46.560Z,6.1
2023-04-02T02:03:47.459Z,6.1
2023-04-02T02:04:48.503Z,6.1
2023-04-02T02:05:49.501Z,6.2
2023-04-02T02:06:50.562Z,6.2
2023-04-02T02:07:51.526Z,6.1
2023-04-02T02:08:52.500Z,6.1
2023-04-02T02:09:53.482Z,6.1
2023-04-02T02:10:54.481Z,6.1
2023-04-02T02:11:55.565Z,6
2023-04-02T02:12:56.482Z,6
2023-04-02T02:13:57.535Z,6
2023-04-02T02:14:58.502Z,5.9
2023-04-02T02:15:59.512Z,5.8
2023-04-02T02:17:00.579Z,5.7
2023-04-02T02:18:01.546Z,5.7
2023-04-02T02:19:02.524Z,5.7
2023-04-02T02:20:03.550Z,5.7
2023-04-02T02:21:04.525Z,5.7
2023-04-02T02:22:05.585Z,5.8
2023-04-02T02:23:06.531Z,5.8
2023-04-02T02:24:07.525Z,5.8
2023-04-02T02:25:08.506Z,5.7
2023-04-02T02:26:09.572Z,5.7
2023-04-02T02:27:10.585Z,5.7
2023-04-02T02:28:11.471Z,5.6
2023-04-02T02:29:12.507Z,5.7
2023-04-02T02:30:13.539Z,5.7
2023-04-02T02:31:14.527Z,5.7
2023-04-02T02:32:15.612Z,5.7
2023-04-02T02:33:16.552Z,5.8
2023-04-02T02:34:17.545Z,5.8
2023-04-02T02:35:18.554Z,5.8
2023-04-02T02:36:19.559Z,5.8
2023-04-02T02:37:20.594Z,5.8
2023-04-02T02:38:21.538Z,5.8
2023-04-02T02:39:22.534Z,5.8
2023-04-02T02:40:23.535Z,5.8
2023-04-02T02:41:24.527Z,5.8
2023-04-02T02:42:25.968Z,5.8
2023-04-02T02:43:27.480Z,5.8
2023-04-02T02:44:28.634Z,5.8
2023-04-02T02:45:29.527Z,5.8
2023-04-02T02:46:33.487Z,5.7
2023-04-02T02:47:34.608Z,5.7
2023-04-02T02:48:35.525Z,5.7
2023-04-02T02:49:36.524Z,5.7
2023-04-02T02:50:37.611Z,5.7
2023-04-02T02:51:38.572Z,5.7
2023-04-02T02:52:39.577Z,5.7
2023-04-02T02:53:40.539Z,5.7
2023-04-02T02:54:41.700Z,5.7
2023-04-02T02:55:42.524Z,5.7
2023-04-02T02:56:43.521Z,5.6
2023-04-02T02:57:44.601Z,5.6
2023-04-02T02:58:45.522Z,5.5
2023-04-02T02:59:46.478Z,5.5
2023-04-02T03:00:47.552Z,5.4
2023-04-02T03:01:48.538Z,5.4
2023-04-02T03:02:49.704Z,5.4
2023-04-02T03:03:50.693Z,5.3
2023-04-02T03:04:51.550Z,5.3
2023-04-02T03:05:52.542Z,5.2
2023-04-02T03:06:53.546Z,5.2
2023-04-02T03:07:54.580Z,5.1
2023-04-02T03:08:55.549Z,5
2023-04-02T03:09:56.541Z,4.9
2023-04-02T03:10:57.615Z,4.8
2023-04-02T03:11:58.554Z,4.8
2023-04-02T03:12:59.943Z,4.8
2023-04-02T03:14:01.544Z,4.8
2023-04-02T03:15:02.641Z,4.8
2023-04-02T03:16:03.555Z,4.9
2023-04-02T03:17:04.562Z,4.9
2023-04-02T03:18:05.636Z,4.9
2023-04-02T03:19:06.511Z,4.9
2023-04-02T03:20:07.548Z,5
2023-04-02T03:21:08.513Z,5
2023-04-02T03:22:09.575Z,5.1
2023-04-02T03:23:10.615Z,5.1
2023-04-02T03:24:11.593Z,5.1
2023-04-02T03:25:12.542Z,5.1
2023-04-02T03:26:13.527Z,5.2
2023-04-02T03:27:14.531Z,5.2
2023-04-02T03:28:15.603Z,5.2
2023-04-02T03:29:16.545Z,5.2
2023-04-02T03:30:17.563Z,5.1
2023-04-02T03:31:18.539Z,5
2023-04-02T03:32:19.543Z,4.9
2023-04-02T03:33:20.565Z,4.9
2023-04-02T03:34:21.546Z,4.9
2023-04-02T03:35:22.564Z,4.9
2023-04-02T03:36:23.614Z,4.9
2023-04-02T03:37:24.562Z,5
2023-04-02T03:38:25.624Z,5
2023-04-02T03:39:26.570Z,5
2023-04-02T03:40:27.560Z,5
2023-04-02T03:41:28.725Z,5
2023-04-02T03:42:29.546Z,4.9
2023-04-02T03:43:31.086Z,4.8
2023-04-02T03:44:32.566Z,4.8
2023-04-02T03:45:33.769Z,4.8
2023-04-02T03:46:34.584Z,4.9
2023-04-02T03:47:35.555Z,4.9
2023-04-02T03:48:36.633Z,4.9
2023-04-02T03:49:37.565Z,4.9
2023-04-02T03:50:38.555Z,5
2023-04-02T03:51:39.579Z,5
2023-04-02T03:52:40.585Z,5
2023-04-02T03:53:41.626Z,5
2023-04-02T03:54:53.372Z,5
2023-04-02T03:55:43.571Z,5
2023-04-02T03:56:44.544Z,5.1
2023-04-02T03:57:45.585Z,5.1
2023-04-02T03:58:46.626Z,5.1
2023-04-02T03:59:47.581Z,5.1
2023-04-02T04:00:48.591Z,5.2
2023-04-02T04:01:49.619Z,5.1
2023-04-02T04:02:50.571Z,5.1
2023-04-02T04:03:51.646Z,5.2
2023-04-02T04:04:52.568Z,5.2
2023-04-02T04:05:53.575Z,5.2
2023-04-02T04:06:54.562Z,5.2
2023-04-02T04:07:56.185Z,5.2
2023-04-02T04:08:57.703Z,5.2
2023-04-02T04:09:58.567Z,5.2
2023-04-02T04:10:59.606Z,5.2
2023-04-02T04:12:00.576Z,5.2
2023-04-02T04:13:02.005Z,5.1
2023-04-02T04:14:04.649Z,5.1
2023-04-02T04:15:05.603Z,5
2023-04-02T04:16:06.611Z,5
2023-04-02T04:17:10.604Z,5
2023-04-02T04:18:11.586Z,5
2023-04-02T04:19:12.597Z,5
2023-04-02T04:20:13.726Z,5
2023-04-02T04:21:15.938Z,5
2023-04-02T04:22:17.644Z,5.1
2023-04-02T04:23:18.570Z,5.1
2023-04-02T04:24:19.663Z,5.1
2023-04-02T04:25:20.608Z,5.1
2023-04-02T04:26:21.862Z,5
2023-04-02T04:27:23.572Z,5
2023-04-02T04:28:24.570Z,5
2023-04-02T04:29:25.670Z,4.9
2023-04-02T04:30:26.612Z,4.9
2023-04-02T04:31:27.532Z,4.8
2023-04-02T04:32:28.924Z,4.5
2023-04-02T04:33:30.664Z,4.6
2023-04-02T04:34:31.909Z,4.5
2023-04-02T04:35:33.942Z,4.5
2023-04-02T04:36:35.006Z,4.5
2023-04-02T04:37:36.604Z,4.5
2023-04-02T04:38:37.645Z,4.6
2023-04-02T04:39:39.605Z,4.6
2023-04-02T04:40:40.629Z,4.6
2023-04-02T04:41:41.553Z,4.7
2023-04-02T04:42:42.628Z,4.7
2023-04-02T04:43:43.596Z,4.8
2023-04-02T04:44:45.607Z,4.9
2023-04-02T04:45:46.611Z,4.9
2023-04-02T04:46:47.606Z,4.9
2023-04-02T04:47:48.601Z,5
2023-04-02T04:48:49.593Z,4.9
2023-04-02T04:49:50.676Z,5
2023-04-02T04:50:51.636Z,5
2023-04-02T04:51:52.583Z,5
2023-04-02T04:52:53.625Z,5
2023-04-02T04:53:55.464Z,5
2023-04-02T04:54:56.942Z,4.9
2023-04-02T04:56:03.509Z,4.9
2023-04-02T04:57:00.603Z,4.8
2023-04-02T04:58:01.635Z,4.7
2023-04-02T04:59:02.625Z,4.6
2023-04-02T05:00:03.689Z,4.5
2023-04-02T05:01:04.620Z,4.5
2023-04-02T05:02:05.584Z,4.5
2023-04-02T05:03:06.587Z,4.6
2023-04-02T05:04:07.805Z,4.6
2023-04-02T05:05:08.964Z,4.7
2023-04-02T05:06:10.644Z,4.7
2023-04-02T05:07:11.610Z,4.8
2023-04-02T05:08:12.582Z,4.7
2023-04-02T05:09:13.589Z,4.7
2023-04-02T05:10:14.691Z,4.7
2023-04-02T05:11:15.611Z,4.6
2023-04-02T05:12:16.603Z,4.7
2023-04-02T05:13:17.580Z,4.7
2023-04-02T05:14:18.614Z,4.7
2023-04-02T05:15:19.691Z,4.8
2023-04-02T05:16:20.623Z,4.7
2023-04-02T05:17:21.637Z,4.7
2023-04-02T05:18:22.567Z,4.6
2023-04-02T05:19:23.867Z,4.6
2023-04-02T05:20:25.703Z,4.7
2023-04-02T05:21:26.553Z,4.7
2023-04-02T05:22:27.576Z,4.7
2023-04-02T05:23:29.082Z,4.7
2023-04-02T05:24:30.612Z,4.7
2023-04-02T05:25:31.671Z,4.8
2023-04-02T05:26:32.646Z,4.8
2023-04-02T05:27:33.614Z,4.9
2023-04-02T05:28:35.303Z,4.9
2023-04-02T05:29:36.603Z,4.9
2023-04-02T05:30:37.692Z,4.9
2023-04-02T05:31:39.670Z,4.9
2023-04-02T05:32:40.672Z,4.8
2023-04-02T05:33:41.742Z,4.8
2023-04-02T05:34:42.583Z,4.8
2023-04-02T05:35:44.170Z,4.8
2023-04-02T05:36:45.585Z,4.8
2023-04-02T05:37:46.603Z,4.8
2023-04-02T05:38:47.594Z,4.7
2023-04-02T05:39:48.624Z,4.7
2023-04-02T05:40:49.684Z,4.7
2023-04-02T05:41:50.626Z,4.7
2023-04-02T05:42:52.446Z,4.7
2023-04-02T05:43:53.613Z,4.8
2023-04-02T05:44:54.635Z,4.8
2023-04-02T05:45:56.115Z,4.8
2023-04-02T05:46:57.659Z,4.8
2023-04-02T05:47:59.138Z,4.8
2023-04-02T05:49:00.630Z,4.9
2023-04-02T05:50:01.663Z,4.9
2023-04-02T05:51:02.921Z,5
2023-04-02T05:52:04.629Z,5
2023-04-02T05:53:05.628Z,5
2023-04-02T05:54:06.809Z,5
2023-04-02T05:55:08.739Z,5
2023-04-02T05:56:10.207Z,5
2023-04-02T05:57:11.660Z,5.1
2023-04-02T05:58:34.316Z,5.1
2023-04-02T05:59:13.645Z,5
2023-04-02T06:00:14.654Z,5
2023-04-02T06:01:15.686Z,5
2023-04-02T06:02:16.616Z,4.9
2023-04-02T06:03:17.693Z,5
2023-04-02T06:04:18.702Z,5
2023-04-02T06:05:19.644Z,5.1
2023-04-02T06:06:20.688Z,5
2023-04-02T06:07:21.625Z,5
2023-04-02T06:08:22.610Z,5
2023-04-02T06:09:23.680Z,5
2023-04-02T06:10:25.057Z,4.9
2023-04-02T06:11:25.675Z,4.9
2023-04-02T06:12:26.644Z,4.9
2023-04-02T06:13:27.706Z,5
2023-04-02T06:14:29.692Z,5
2023-04-02T06:15:30.639Z,5
2023-04-02T06:16:35.761Z,5
2023-04-02T06:17:36.628Z,5
2023-04-02T06:18:37.657Z,5
2023-04-02T06:19:38.626Z,5
2023-04-02T06:20:39.843Z,5
2023-04-02T06:21:40.704Z,5.1
2023-04-02T06:22:41.606Z,5.1
2023-04-02T06:23:42.644Z,5.1
2023-04-02T06:24:43.604Z,4.9
2023-04-02T06:25:44.688Z,4.7
2023-04-02T06:26:45.688Z,4.7
2023-04-02T06:27:46.729Z,4.7
2023-04-02T06:28:47.656Z,4.6
2023-04-02T06:29:48.670Z,4.6
2023-04-02T06:30:49.659Z,4.5
2023-04-02T06:31:51.110Z,4.5
2023-04-02T06:32:52.643Z,4.5
2023-04-02T06:33:54.519Z,4.6
2023-04-02T06:34:55.650Z,4.4
2023-04-02T06:35:56.675Z,4.5
2023-04-02T06:36:57.691Z,4.5
2023-04-02T06:37:58.627Z,4.5
2023-04-02T06:38:59.667Z,4.5
2023-04-02T06:40:00.685Z,4.5
2023-04-02T06:41:01.673Z,4.6
2023-04-02T06:42:02.934Z,4.7
2023-04-02T06:43:04.655Z,4.7
2023-04-02T06:44:05.630Z,4.6
2023-04-02T06:45:06.669Z,4.5
2023-04-02T06:46:07.942Z,4.6
2023-04-02T06:47:08.900Z,4.7
2023-04-02T06:48:10.654Z,4.5
2023-04-02T06:49:12.632Z,4.5
2023-04-02T06:50:14.490Z,4.5
2023-04-02T06:51:16.669Z,4.6
2023-04-02T06:52:17.922Z,4.6
2023-04-02T06:53:19.632Z,4.7
2023-04-02T06:54:20.712Z,4.7
2023-04-02T06:55:21.664Z,4.7
2023-04-02T06:56:22.651Z,4.7
2023-04-02T06:57:24.691Z,4.7
2023-04-02T06:58:27.555Z,4.7
2023-04-02T06:59:28.673Z,4.7
2023-04-02T07:00:30.643Z,4.8
2023-04-02T07:01:31.738Z,4.8
2023-04-02T07:02:32.692Z,4.8
2023-04-02T07:03:33.688Z,4.8
2023-04-02T07:04:34.698Z,4.8
2023-04-02T07:05:37.072Z,4.9
2023-04-02T07:06:37.678Z,4.9
2023-04-02T07:07:38.613Z,5
2023-04-02T07:08:40.668Z,5
2023-04-02T07:09:42.714Z,5
2023-04-02T07:10:43.646Z,4.9
2023-04-02T07:11:44.625Z,4.8
2023-04-02T07:12:45.637Z,4.8
2023-04-02T07:13:46.690Z,4.7
2023-04-02T07:14:47.662Z,4.8
2023-04-02T07:15:48.674Z,4.8
2023-04-02T07:16:49.643Z,4.7
2023-04-02T07:17:50.742Z,4.6
2023-04-02T07:18:51.640Z,4.4
2023-04-02T07:19:52.641Z,4.3
2023-04-02T07:20:54.123Z,4.2
2023-04-02T07:21:55.648Z,4.2
2023-04-02T07:22:56.740Z,4.3
2023-04-02T07:23:57.642Z,4.4
2023-04-02T07:24:58.647Z,4.5
2023-04-02T07:25:59.683Z,4.6
2023-04-02T07:27:00.664Z,4.7
2023-04-02T07:28:01.664Z,4.7
2023-04-02T07:29:02.746Z,4.6
2023-04-02T07:30:04.095Z,4.7
2023-04-02T07:31:05.648Z,4.8
2023-04-02T07:32:06.639Z,4.9
2023-04-02T07:33:07.678Z,5
2023-04-02T07:34:09.374Z,5.1
2023-04-02T07:35:10.644Z,5.1
2023-04-02T07:36:11.686Z,5.1
2023-04-02T07:37:13.883Z,5
2023-04-02T07:38:15.119Z,5
2023-04-02T07:39:16.706Z,5.1
2023-04-02T07:40:17.655Z,5.1
2023-04-02T07:41:18.921Z,5.1
2023-04-02T07:42:20.682Z,5.1
2023-04-02T07:43:21.665Z,5.1
2023-04-02T07:44:22.734Z,5
2023-04-02T07:45:24.143Z,5
2023-04-02T07:46:25.734Z,4.9
2023-04-02T07:47:27.759Z,4.9
2023-04-02T07:48:30.105Z,5
2023-04-02T07:49:31.903Z,4.9
2023-04-02T07:50:33.669Z,4.9
2023-04-02T07:51:35.905Z,4.8
2023-04-02T07:52:39.128Z,4.6
2023-04-02T07:53:38.719Z,4.4
2023-04-02T07:54:40.742Z,4.2
2023-04-02T07:55:42.850Z,4
2023-04-02T07:56:44.706Z,4
2023-04-02T07:57:46.873Z,4.1
2023-04-02T07:58:47.670Z,4.2
2023-04-02T07:59:50.766Z,4.2
2023-04-02T08:00:51.682Z,4.3
2023-04-02T08:01:52.794Z,4.4
2023-04-02T08:02:53.815Z,4.5
2023-04-02T08:03:54.875Z,4.4
2023-04-02T08:04:55.758Z,4.5
2023-04-02T08:05:56.692Z,4.5
2023-04-02T08:06:58.277Z,4.3
2023-04-02T08:07:59.638Z,4.3
2023-04-02T08:09:00.710Z,4.3
2023-04-02T08:10:02.894Z,4.5
2023-04-02T08:11:04.724Z,4.5
2023-04-02T08:12:06.723Z,4.6
2023-04-02T08:13:08.080Z,4.6
2023-04-02T08:14:09.735Z,4.7
2023-04-02T08:15:11.758Z,4.7
2023-04-02T08:16:12.784Z,4.7
2023-04-02T08:17:13.856Z,4.8
2023-04-02T08:18:14.698Z,4.9
2023-04-02T08:19:15.669Z,5
2023-04-02T08:20:16.763Z,5
2023-04-02T08:21:18.692Z,5.1
2023-04-02T08:22:19.680Z,5.2
2023-04-02T08:23:20.653Z,5.2
2023-04-02T08:24:21.866Z,5.2
2023-04-02T08:25:22.725Z,5.2
2023-04-02T08:26:23.692Z,5.1
2023-04-02T08:27:24.708Z,5
2023-04-02T08:28:25.666Z,4.8
2023-04-02T08:29:26.681Z,4.8
2023-04-02T08:30:27.772Z,4.9
2023-04-02T08:31:29.733Z,5
2023-04-02T08:32:31.525Z,5
2023-04-02T08:33:32.654Z,5
2023-04-02T08:34:33.695Z,5.1
2023-04-02T08:35:35.176Z,5.1
2023-04-02T08:36:35.691Z,5.1
2023-04-02T08:37:36.714Z,5.1
2023-04-02T08:38:37.666Z,5.1
2023-04-02T08:39:39.108Z,5
2023-04-02T08:40:40.759Z,5
2023-04-02T08:41:41.687Z,5.1
2023-04-02T08:42:42.945Z,5.1
2023-04-02T08:43:43.676Z,5.1
2023-04-02T08:44:44.652Z,5.1
2023-04-02T08:45:45.847Z,5.2
2023-04-02T08:46:47.392Z,5.2
2023-04-02T08:47:48.769Z,5.2
2023-04-02T08:48:49.708Z,5.2
2023-04-02T08:49:50.824Z,5.1
2023-04-02T08:50:53.209Z,5.1
2023-04-02T08:51:54.725Z,5.1
2023-04-02T08:52:55.664Z,5
2023-04-02T08:53:56.680Z,4.8
2023-04-02T08:54:57.724Z,4.7
2023-04-02T08:55:59.895Z,4.7
2023-04-02T08:57:00.706Z,4.8
2023-04-02T08:58:01.684Z,4.8
2023-04-02T08:59:03.664Z,4.8
2023-04-02T09:00:04.706Z,4.7
2023-04-02T09:01:06.823Z,4.8
2023-04-02T09:02:08.707Z,4.9
2023-04-02T09:03:09.760Z,4.9
2023-04-02T09:04:10.705Z,5
2023-04-02T09:05:12.613Z,5
2023-04-02T09:06:16.524Z,5.1
2023-04-02T09:07:15.743Z,5.2
2023-04-02T09:08:17.703Z,5
2023-04-02T09:09:18.743Z,4.9
2023-04-02T09:10:19.675Z,5
2023-04-02T09:11:20.786Z,5.1
2023-04-02T09:12:21.663Z,5.2
2023-04-02T09:13:22.984Z,5.2
2023-04-02T09:14:23.726Z,5.3
2023-04-02T09:15:25.362Z,5.3
2023-04-02T09:16:26.818Z,5.4
2023-04-02T09:17:27.775Z,5.4
2023-04-02T09:18:28.731Z,5.3
2023-04-02T09:19:29.694Z,5.4
2023-04-02T09:20:31.738Z,5.5
2023-04-02T09:21:32.804Z,5.6
2023-04-02T09:22:34.749Z,5.6
2023-04-02T09:23:36.464Z,5.6
2023-04-02T09:24:37.774Z,5.6
2023-04-02T09:25:38.727Z,5.6
2023-04-02T09:26:39.872Z,5.5
2023-04-02T09:27:41.731Z,5.6
2023-04-02T09:28:42.694Z,5.4
2023-04-02T09:29:43.685Z,5.2
2023-04-02T09:30:44.987Z,5.2
2023-04-02T09:31:45.782Z,5.1
2023-04-02T09:32:46.789Z,5
2023-04-02T09:33:47.724Z,4.9
2023-04-02T09:34:50.285Z,4.9
2023-04-02T09:35:51.796Z,4.9
2023-04-02T09:36:53.814Z,5
2023-04-02T09:37:54.822Z,5
2023-04-02T09:38:56.787Z,5.1
2023-04-02T09:39:58.208Z,5.1
2023-04-02T09:40:59.748Z,5.1
2023-04-02T09:42:05.670Z,5.1
2023-04-02T09:43:03.709Z,5.2
2023-04-02T09:44:04.669Z,5.2
2023-04-02T09:45:05.766Z,5.3
2023-04-02T09:46:06.697Z,5.3
2023-04-02T09:47:07.807Z,5.3
2023-04-02T09:48:08.747Z,5.4
2023-04-02T09:49:09.683Z,5.5
2023-04-02T09:50:11.740Z,5.5
2023-04-02T09:51:12.860Z,5.5
2023-04-02T09:52:15.136Z,5.5
2023-04-02T09:53:16.727Z,5.5
2023-04-02T09:54:17.790Z,5.6
2023-04-02T09:55:18.967Z,5.7
2023-04-02T09:56:21.864Z,5.7
2023-04-02T09:57:24.145Z,5.8
2023-04-02T09:58:25.704Z,5.9
2023-04-02T09:59:27.705Z,5.7
2023-04-02T10:00:32.403Z,5.5
2023-04-02T10:01:31.802Z,5.5
2023-04-02T10:02:33.011Z,5.5
2023-04-02T10:03:33.697Z,5.4
2023-04-02T10:04:34.814Z,5.5
2023-04-02T10:05:40.396Z,5.5
2023-04-02T10:06:37.864Z,5.6
2023-04-02T10:07:39.779Z,5.7
2023-04-02T10:08:41.744Z,5.8
2023-04-02T10:09:42.726Z,5.9
2023-04-02T10:10:43.746Z,5.8
2023-04-02T10:11:46.508Z,5.6
2023-04-02T10:12:46.763Z,5.2
2023-04-02T10:13:47.744Z,5.1
2023-04-02T10:14:48.747Z,5.2
2023-04-02T10:15:49.758Z,5.2
2023-04-02T10:16:50.790Z,5.2
2023-04-02T10:17:51.842Z,4.9
2023-04-02T10:18:52.740Z,4.8
2023-04-02T10:19:53.759Z,4.9
2023-04-02T10:20:54.723Z,5
2023-04-02T10:21:55.761Z,5.1
2023-04-02T10:22:56.741Z,5.1
2023-04-02T10:23:58.244Z,5.2
2023-04-02T10:25:00.725Z,5.3
2023-04-02T10:26:01.737Z,5.3
2023-04-02T10:27:02.737Z,5.3
2023-04-02T10:28:03.744Z,5.4
2023-04-02T10:29:06.823Z,5.4
2023-04-02T10:30:06.452Z,5.5
2023-04-02T10:31:08.840Z,5.5
2023-04-02T10:32:11.347Z,5.6
2023-04-02T10:33:12.789Z,5.5
2023-04-02T10:34:14.000Z,5.4
2023-04-02T10:35:15.852Z,5.5
2023-04-02T10:36:17.115Z,5.4
2023-04-02T10:37:19.005Z,5.4
2023-04-02T10:38:20.807Z,5.4
2023-04-02T10:39:24.788Z,5.5
2023-04-02T10:40:25.786Z,5.4
2023-04-02T10:41:26.740Z,5.4
2023-04-02T10:42:27.762Z,5.5
2023-04-02T10:43:28.812Z,5.5
2023-04-02T10:44:29.934Z,5.5
2023-04-02T10:45:31.745Z,5.5
2023-04-02T10:46:34.111Z,5.6
2023-04-02T10:47:35.778Z,5.7
2023-04-02T10:48:37.810Z,5.7
2023-04-02T10:49:38.795Z,5.8
2023-04-02T10:50:39.802Z,5.8
2023-04-02T10:51:40.748Z,5.9
2023-04-02T10:52:42.187Z,5.9
2023-04-02T10:53:44.496Z,5.9
2023-04-02T10:54:45.763Z,6
2023-04-02T10:55:47.735Z,5.9
2023-04-02T10:56:51.253Z,5.9
2023-04-02T10:57:50.787Z,5.9
2023-04-02T10:59:53.767Z,5.8
2023-04-02T11:00:56.117Z,5.7
2023-04-02T11:01:57.812Z,5.5
2023-04-02T11:02:59.321Z,5.4
2023-04-02T11:04:00.873Z,5.4
2023-04-02T11:05:02.165Z,5.4
2023-04-02T11:06:03.090Z,5.4
2023-04-02T11:07:13.602Z,5.4
2023-04-02T11:08:05.783Z,5.5
2023-04-02T11:09:07.812Z,5.4
2023-04-02T11:10:08.775Z,5.4
2023-04-02T11:11:09.738Z,5.2
2023-04-02T11:12:11.126Z,5
2023-04-02T11:13:12.725Z,4.9
2023-04-02T11:14:14.797Z,4.9
2023-04-02T11:15:16.788Z,5
2023-04-02T11:16:19.993Z,5.1
2023-04-02T11:17:21.786Z,5.3
2023-04-02T11:18:22.821Z,5.4
2023-04-02T11:19:23.872Z,5.5
2023-04-02T11:20:24.966Z,5.5
2023-04-02T11:21:26.978Z,5.6
2023-04-02T11:22:28.725Z,5.7
2023-04-02T11:23:31.629Z,5.7
2023-04-02T11:24:33.829Z,5.7
2023-04-02T11:25:35.980Z,5.7
2023-04-02T11:26:37.768Z,5.8
2023-04-02T11:27:38.785Z,5.8
2023-04-02T11:28:39.767Z,5.9
2023-04-02T11:29:40.866Z,5.9
2023-04-02T11:30:42.786Z,5.9
2023-04-02T11:31:44.135Z,5.9
2023-04-02T11:32:45.779Z,5.8
2023-04-02T11:33:48.190Z,5.9
2023-04-02T11:34:53.758Z,5.9
2023-04-02T11:35:48.796Z,5.9
2023-04-02T11:36:49.789Z,5.9
2023-04-02T11:37:50.766Z,6
2023-04-02T11:38:52.445Z,5.9
2023-04-02T11:39:52.884Z,5.8
2023-04-02T11:40:53.808Z,5.7
2023-04-02T11:41:55.787Z,5.6
2023-04-02T11:42:56.793Z,5.7
2023-04-02T11:43:57.846Z,5.6
2023-04-02T11:44:59.878Z,5.7
2023-04-02T11:46:00.757Z,5.6
2023-04-02T11:47:01.838Z,5.5
2023-04-02T11:48:03.847Z,5.5
2023-04-02T11:49:05.649Z,5.6
2023-04-02T11:50:07.034Z,5.6
2023-04-02T11:51:08.787Z,5.7
2023-04-02T11:52:12.180Z,5.7
2023-04-02T11:53:12.015Z,5.7
2023-04-02T11:54:13.813Z,5.8
2023-04-02T11:55:16.053Z,5.8
2023-04-02T11:56:17.826Z,5.8
2023-04-02T11:57:20.994Z,5.7
2023-04-02T11:58:19.965Z,5.6
2023-04-02T11:59:21.808Z,5.7
2023-04-02T12:00:23.882Z,5.7
2023-04-02T12:01:25.824Z,5.7
2023-04-02T12:02:27.812Z,5.8
2023-04-02T12:03:28.759Z,5.8
2023-04-02T12:04:29.771Z,5.8
2023-04-02T12:05:30.991Z,5.9
2023-04-02T12:06:32.712Z,5.9
2023-04-02T12:07:34.893Z,5.9
2023-04-02T12:08:41.865Z,5.9
2023-04-02T12:09:37.865Z,5.8
2023-04-02T12:10:39.830Z,5.7
2023-04-02T12:11:40.792Z,5.5
2023-04-02T12:12:41.780Z,5.5
2023-04-02T12:13:43.796Z,5.4
2023-04-02T12:14:44.803Z,5.4
2023-04-02T12:15:45.847Z,5.3
2023-04-02T12:16:46.815Z,5.4
2023-04-02T12:17:48.120Z,5.4
2023-04-02T12:18:49.763Z,5.4
2023-04-02T12:19:51.844Z,5.5
2023-04-02T12:20:53.868Z,5.5
2023-04-02T12:21:56.743Z,5.6
2023-04-02T12:22:57.776Z,5.7
2023-04-02T12:23:59.800Z,5.8
2023-04-02T12:25:01.927Z,5.8
2023-04-02T12:26:03.904Z,5.9
2023-04-02T12:27:05.762Z,5.9
2023-04-02T12:28:06.811Z,5.9
2023-04-02T12:29:08.124Z,5.9
2023-04-02T12:30:10.072Z,6
2023-04-02T12:31:12.011Z,6
2023-04-02T12:32:12.786Z,6.1
2023-04-02T12:33:14.816Z,6.1
2023-04-02T12:34:15.804Z,6.2
2023-04-02T12:35:16.862Z,6.2
2023-04-02T12:36:17.912Z,6.2
2023-04-02T12:37:18.820Z,6.2
2023-04-02T12:38:19.779Z,6.2
2023-04-02T12:39:21.830Z,6.2
2023-04-02T12:40:22.836Z,6.2
2023-04-02T12:41:23.870Z,6.2
2023-04-02T12:42:24.808Z,6.2
2023-04-02T12:43:25.810Z,6.2
2023-04-02T12:44:26.841Z,6.3
2023-04-02T12:45:29.787Z,6.2
2023-04-02T12:46:31.158Z,6.3
2023-04-02T12:47:32.854Z,6.3
2023-04-02T12:48:33.941Z,6.3
2023-04-02T12:49:34.805Z,6.2
2023-04-02T12:50:35.973Z,6.1
2023-04-02T12:51:37.888Z,6
2023-04-02T12:52:38.802Z,6
2023-04-02T12:53:39.811Z,6
2023-04-02T12:54:40.783Z,6
2023-04-02T12:55:42.102Z,6
2023-04-02T12:56:44.418Z,6
2023-04-02T12:57:45.843Z,6
2023-04-02T12:58:47.836Z,6
2023-04-02T12:59:49.818Z,6
2023-04-02T13:00:51.806Z,6.1
2023-04-02T13:01:52.925Z,6.2
2023-04-02T13:02:53.881Z,6.2
2023-04-02T13:03:54.838Z,6.3
2023-04-02T13:04:55.767Z,6.3
2023-04-02T13:05:56.816Z,6.2
2023-04-02T13:06:59.850Z,6.1
2023-04-02T13:08:00.797Z,6.1
2023-04-02T13:09:02.981Z,6.1
2023-04-02T13:10:03.826Z,6.2
2023-04-02T13:11:04.853Z,6.2
2023-04-02T13:12:07.078Z,6.2
2023-04-02T13:13:08.805Z,6.2
2023-04-02T13:14:09.825Z,6.2
2023-04-02T13:15:10.825Z,6.2
2023-04-02T13:16:11.852Z,6.2
2023-04-02T13:17:12.911Z,6.3
2023-04-02T13:18:13.825Z,6.3
2023-04-02T13:19:14.878Z,6.2
2023-04-02T13:20:16.820Z,6.1
2023-04-02T13:21:17.807Z,6.1
2023-04-02T13:22:19.929Z,6.1
2023-04-02T13:23:20.809Z,6.1
2023-04-02T13:24:21.857Z,6.2
2023-04-02T13:25:22.848Z,6.2
2023-04-02T13:26:23.826Z,6.2
2023-04-02T13:27:24.828Z,6.3
2023-04-02T13:28:25.875Z,6.3
2023-04-02T13:29:27.126Z,6.2
2023-04-02T13:30:28.843Z,6.2
2023-04-02T13:31:30.933Z,6.3
2023-04-02T13:32:32.132Z,6.4
2023-04-02T13:33:33.846Z,6.6
2023-04-02T13:34:35.053Z,6.6
2023-04-02T13:35:36.838Z,6.7
2023-04-02T13:36:38.872Z,6.6
2023-04-02T13:37:39.975Z,6.6
2023-04-02T13:38:40.826Z,6.4
2023-04-02T13:39:41.826Z,6.3
2023-04-02T13:40:43.080Z,6.1
2023-04-02T13:41:44.815Z,5.8
2023-04-02T13:42:46.986Z,5.5
2023-04-02T13:43:48.827Z,5.4
2023-04-02T13:44:50.893Z,5.4
2023-04-02T13:45:51.928Z,5.5
2023-04-02T13:46:52.866Z,5.6
2023-04-02T13:47:53.950Z,5.5
2023-04-02T13:48:54.853Z,5.5
2023-04-02T13:49:56.345Z,5.6
2023-04-02T13:50:57.985Z,5.7
2023-04-02T13:51:59.901Z,5.7
2023-04-02T13:53:02.242Z,5.9
2023-04-02T13:54:03.906Z,6
2023-04-02T13:55:05.864Z,6.1
2023-04-02T13:56:07.885Z,6.1
2023-04-02T13:57:09.862Z,6.2
2023-04-02T13:58:11.490Z,6.2
2023-04-02T13:59:12.826Z,6.3
2023-04-02T14:00:13.836Z,6.3
2023-04-02T14:01:15.056Z,6.4
2023-04-02T14:02:17.395Z,6.4
2023-04-02T14:03:18.906Z,6.5
2023-04-02T14:04:20.930Z,6.5
2023-04-02T14:05:22.870Z,6.4
2023-04-02T14:06:25.128Z,6.5
2023-04-02T14:07:27.096Z,6.5
2023-04-02T14:08:27.988Z,6.6
2023-04-02T14:09:28.846Z,6.6
2023-04-02T14:10:29.901Z,6.5
2023-04-02T14:11:30.845Z,6.5
2023-04-02T14:12:32.115Z,6.6
2023-04-02T14:13:32.821Z,6.6